This is the latest recevied weather packets stored in our database for station/object WX7EM. If no packets are shown the sender has not sent any weather packets the latest 10 day(s).
| Time | Temp. | Humidity | Pressure | Rain* | Wind** | Luminosity | Snow |
|---|---|---|---|---|---|---|---|
| 1778188068 | 18.89° C | 66% | 1017.9 hPa | 0 mm | - | 813 W/m² | - |
| 1778187765 | 18.89° C | 65% | 1017.9 hPa | 0 mm | - | 831 W/m² | - |
| 1778187462 | 18.89° C | 66% | 1018 hPa | 0 mm | - | 829 W/m² | - |
| 1778187159 | 18.89° C | 66% | 1018 hPa | 0 mm | - | 836 W/m² | - |
| 1778186855 | 18.89° C | 66% | 1018 hPa | 0 mm | - | 840 W/m² | - |
| 1778186553 | 18.33° C | 68% | 1018.1 hPa | 0 mm | - | 846 W/m² | - |
| 1778186250 | 18.33° C | 67% | 1018.2 hPa | 0 mm | - | 853 W/m² | - |
| 1778185947 | 18.33° C | 68% | 1018.2 hPa | 0 mm | - | 828 W/m² | - |
| 1778185644 | 17.78° C | 68% | 1018.4 hPa | 0 mm | - | 861 W/m² | - |
| 1778185340 | 17.78° C | 69% | 1018.2 hPa | 0 mm | - | 868 W/m² | - |
| 1778185035 | 18.33° C | 67% | 1018.2 hPa | 0 mm | - | 882 W/m² | - |
| 1778184732 | 18.33° C | 67% | 1018.4 hPa | 0 mm | - | 908 W/m² | - |
| 1778184428 | 18.33° C | 66% | 1018.5 hPa | 0 mm | - | 908 W/m² | - |
| 1778184124 | 18.33° C | 68% | 1018.4 hPa | 0 mm | - | 935 W/m² | - |
| 1778183821 | 18.89° C | 65% | 1018.6 hPa | 0 mm | - | 949 W/m² | - |
| 1778183518 | 17.78° C | 68% | 1018.8 hPa | 0 mm | - | 955 W/m² | - |
| 1778183215 | 17.22° C | 70% | 1018.6 hPa | 0 mm | - | 978 W/m² | - |
| 1778182910 | 16.11° C | 71% | 1018.7 hPa | 0 mm | - | 823 W/m² | - |
| 1778182607 | 16.67° C | 71% | 1018.8 hPa | 0 mm | - | 435 W/m² | - |
| 1778182305 | 16.67° C | 71% | 1018.9 hPa | 0 mm | - | 454 W/m² | - |
| 1778182001 | 16.11° C | 71% | 1018.9 hPa | 0 mm | - | 493 W/m² | - |
| 1778181698 | 16.11° C | 72% | 1018.9 hPa | 0 mm | - | 415 W/m² | - |
| 1778181393 | 16.11° C | 72% | 1018.9 hPa | 0 mm | - | 381 W/m² | - |
| 1778181090 | 16.11° C | 74% | 1019.1 hPa | 0 mm | - | 334 W/m² | - |
| 1778180788 | 16.67° C | 72% | 1018.9 hPa | 0 mm | - | 293 W/m² | - |
* Rain latest hour (hover to see other rain measurements)
** Current wind speed in m/s (hover to see current wind gust speed)